createdAt,value
2019-04-25T00:10:40.000Z,69.30
2019-04-25T00:29:52.000Z,71.25
2019-04-25T00:44:16.000Z,72.04
2019-04-25T00:58:40.000Z,72.41
2019-04-25T01:13:04.000Z,74.79
2019-04-25T01:22:42.000Z,74.12
2019-04-25T01:37:02.000Z,75.80
2019-04-25T01:46:37.000Z,75.57
2019-04-25T01:56:14.000Z,77.12
2019-04-25T02:05:50.000Z,77.13
2019-04-25T02:25:01.000Z,76.90
2019-04-25T02:39:25.000Z,78.08
2019-04-25T03:03:25.000Z,81.55
2019-04-25T03:08:13.000Z,81.91
2019-04-25T03:13:01.000Z,82.54
2019-04-25T03:32:13.000Z,82.13
2019-04-25T03:51:25.000Z,83.73
2019-04-25T04:05:49.000Z,83.63
2019-04-25T04:25:00.000Z,84.64
2019-04-25T04:39:25.000Z,85.67
2019-04-25T04:58:38.000Z,86.61
2019-04-25T05:17:52.000Z,82.78
2019-04-25T05:32:18.000Z,81.76
2019-04-25T05:51:34.000Z,76.08
2019-04-25T06:06:00.000Z,73.25
2019-04-25T06:25:16.000Z,64.36
2019-04-25T06:44:32.000Z,56.23
2019-04-25T06:58:58.000Z,52.69
2019-04-25T07:03:47.000Z,50.70
2019-04-25T07:18:13.000Z,43.88
2019-04-25T07:32:38.000Z,42.26
2019-04-25T07:37:25.000Z,42.49
2019-04-25T07:42:14.000Z,42.74
2019-04-25T07:47:03.000Z,41.01
2019-04-25T07:51:52.000Z,40.00
2019-04-25T07:56:40.000Z,38.42
2019-04-25T08:01:28.000Z,38.65
2019-04-25T08:06:17.000Z,38.47
2019-04-25T08:11:06.000Z,37.59
2019-04-25T08:15:55.000Z,36.63
2019-04-25T08:20:43.000Z,33.95
2019-04-25T08:25:31.000Z,35.14
2019-04-25T08:30:21.000Z,33.48
2019-04-25T08:35:10.000Z,32.75
2019-04-25T08:39:58.000Z,32.41
2019-04-25T08:44:46.000Z,32.44
2019-04-25T08:49:34.000Z,32.56
2019-04-25T08:54:22.000Z,31.72
2019-04-25T08:59:10.000Z,31.28
2019-04-25T09:03:59.000Z,31.10
2019-04-25T09:13:37.000Z,30.54
2019-04-25T09:18:21.000Z,29.85
2019-04-25T09:23:11.000Z,30.16
2019-04-25T09:27:59.000Z,29.01
2019-04-25T09:32:46.000Z,27.81
2019-04-25T09:37:35.000Z,28.37
2019-04-25T09:42:23.000Z,28.80
2019-04-25T09:47:12.000Z,28.94
2019-04-25T09:52:01.000Z,28.54
2019-04-25T09:56:49.000Z,28.30
2019-04-25T10:01:37.000Z,28.03
2019-04-25T10:06:26.000Z,28.40
2019-04-25T10:11:17.000Z,27.89
2019-04-25T10:16:02.000Z,28.08
2019-04-25T10:20:50.000Z,28.15
2019-04-25T10:25:38.000Z,28.42
2019-04-25T10:30:27.000Z,28.53
2019-04-25T10:35:15.000Z,28.52
2019-04-25T10:40:04.000Z,27.76
2019-04-25T10:44:52.000Z,27.82
2019-04-25T10:49:41.000Z,27.80
2019-04-25T10:54:30.000Z,27.30
2019-04-25T10:59:18.000Z,27.36
2019-04-25T11:04:07.000Z,26.84
2019-04-25T11:08:56.000Z,26.46
2019-04-25T11:13:44.000Z,25.93
2019-04-25T11:18:33.000Z,25.87
2019-04-25T11:23:22.000Z,26.21
2019-04-25T11:28:10.000Z,25.50
2019-04-25T11:32:58.000Z,25.82
2019-04-25T11:37:46.000Z,26.44
2019-04-25T11:42:34.000Z,27.09
2019-04-25T11:47:24.000Z,26.32
2019-04-25T11:59:32.000Z,25.63
2019-04-25T12:04:06.000Z,25.08
2019-04-25T12:08:54.000Z,25.62
2019-04-25T12:10:47.000Z,26.03
2019-04-25T12:15:23.000Z,25.97
2019-04-25T12:20:11.000Z,26.39
2019-04-25T12:24:59.000Z,26.81
2019-04-25T12:29:47.000Z,26.38
2019-04-25T12:34:36.000Z,26.23
2019-04-25T12:39:25.000Z,25.76
2019-04-25T12:44:13.000Z,25.54
2019-04-25T12:49:02.000Z,26.13
2019-04-25T12:53:47.000Z,27.10
2019-04-25T12:58:36.000Z,27.20
2019-04-25T13:03:24.000Z,27.56
2019-04-25T13:08:57.000Z,27.24
2019-04-25T13:13:32.000Z,26.95
2019-04-25T13:18:19.000Z,26.74
2019-04-25T13:23:06.000Z,27.08
2019-04-25T13:27:54.000Z,28.05
2019-04-25T13:32:43.000Z,28.47
2019-04-25T13:37:32.000Z,27.64
2019-04-25T13:42:21.000Z,27.04
2019-04-25T13:47:09.000Z,26.23
2019-04-25T13:51:58.000Z,26.24
2019-04-25T13:56:45.000Z,26.79
2019-04-25T14:01:32.000Z,27.51
2019-04-25T14:06:21.000Z,28.04
2019-04-25T14:11:08.000Z,28.46
2019-04-25T14:15:56.000Z,28.91
2019-04-25T14:20:44.000Z,29.29
2019-04-25T14:25:32.000Z,29.49
2019-04-25T14:30:21.000Z,29.50
2019-04-25T14:35:09.000Z,29.72
2019-04-25T14:40:01.000Z,29.96
2019-04-25T14:44:44.000Z,30.04
2019-04-25T14:49:33.000Z,30.08
2019-04-25T14:54:22.000Z,29.86
2019-04-25T14:59:09.000Z,29.86
2019-04-25T15:03:57.000Z,30.10
2019-04-25T15:08:45.000Z,30.50
2019-04-25T15:13:33.000Z,30.82
2019-04-25T15:18:22.000Z,30.74
2019-04-25T15:23:10.000Z,30.46
2019-04-25T15:27:59.000Z,30.19
2019-04-25T15:32:47.000Z,29.98
2019-04-25T15:37:35.000Z,30.12
2019-04-25T15:42:23.000Z,30.17
2019-04-25T15:47:11.000Z,30.40
2019-04-25T15:51:59.000Z,30.89
2019-04-25T15:56:47.000Z,31.15
2019-04-25T16:01:35.000Z,31.66
2019-04-25T16:06:23.000Z,32.13
2019-04-25T16:11:11.000Z,31.82
2019-04-25T16:15:59.000Z,31.86
2019-04-25T16:20:47.000Z,32.38
2019-04-25T16:25:37.000Z,32.52
2019-04-25T16:30:23.000Z,33.04
2019-04-25T16:35:11.000Z,33.05
2019-04-25T16:40:00.000Z,33.45
2019-04-25T16:44:48.000Z,33.56
2019-04-25T16:49:36.000Z,33.90
2019-04-25T16:54:24.000Z,33.78
2019-04-25T16:59:12.000Z,34.37
2019-04-25T17:04:00.000Z,34.16
2019-04-25T17:08:48.000Z,34.39
2019-04-25T17:13:36.000Z,34.74
2019-04-25T17:18:24.000Z,35.25
2019-04-25T17:23:12.000Z,35.88
2019-04-25T17:28:00.000Z,36.10
2019-04-25T17:32:48.000Z,35.89
2019-04-25T17:37:36.000Z,36.05
2019-04-25T17:42:25.000Z,36.21
2019-04-25T17:47:13.000Z,36.47
2019-04-25T17:52:00.000Z,36.88
2019-04-25T17:56:48.000Z,37.40
2019-04-25T18:01:36.000Z,37.86
2019-04-25T18:06:24.000Z,38.30
2019-04-25T18:11:11.000Z,38.35
2019-04-25T18:15:59.000Z,38.29
2019-04-25T18:20:47.000Z,38.24
2019-04-25T18:25:35.000Z,38.14
2019-04-25T18:30:22.000Z,38.51
2019-04-25T18:35:10.000Z,38.58
2019-04-25T18:39:58.000Z,38.76
2019-04-25T18:44:46.000Z,39.01
2019-04-25T18:49:34.000Z,42.12
2019-04-25T18:54:22.000Z,43.34
2019-04-25T18:59:10.000Z,42.62
2019-04-25T19:03:58.000Z,42.41
2019-04-25T19:08:46.000Z,42.97
2019-04-25T19:13:34.000Z,44.74
2019-04-25T19:18:21.000Z,45.57
2019-04-25T19:23:09.000Z,45.78
2019-04-25T19:27:57.000Z,45.08
2019-04-25T19:32:45.000Z,45.10
2019-04-25T19:37:33.000Z,47.16
2019-04-25T19:42:20.000Z,48.55
2019-04-25T19:47:08.000Z,49.35
2019-04-25T19:51:56.000Z,49.92
2019-04-25T19:56:44.000Z,49.43
2019-04-25T20:01:32.000Z,50.19
2019-04-25T20:06:20.000Z,50.07
2019-04-25T20:11:08.000Z,51.19
2019-04-25T20:15:56.000Z,50.33
2019-04-25T20:20:44.000Z,50.34
2019-04-25T20:25:32.000Z,51.10
2019-04-25T20:30:21.000Z,51.72
2019-04-25T20:35:08.000Z,51.16
2019-04-25T20:39:56.000Z,52.96
2019-04-25T20:44:44.000Z,53.39
2019-04-25T20:49:32.000Z,54.10
2019-04-25T20:54:20.000Z,54.42
2019-04-25T20:59:07.000Z,55.00
2019-04-25T21:03:55.000Z,55.27
2019-04-25T21:08:43.000Z,55.77
2019-04-25T21:13:36.000Z,56.06
2019-04-25T21:18:18.000Z,56.66
2019-04-25T21:23:06.000Z,57.92
2019-04-25T21:27:54.000Z,58.08
2019-04-25T21:32:42.000Z,57.48
2019-04-25T21:37:29.000Z,56.67
2019-04-25T21:42:17.000Z,57.27
2019-04-25T21:47:05.000Z,59.69
2019-04-25T21:51:54.000Z,61.32
2019-04-25T21:56:41.000Z,62.61
2019-04-25T22:01:29.000Z,62.37
2019-04-25T22:06:17.000Z,63.37
2019-04-25T22:11:05.000Z,64.04
2019-04-25T22:15:53.000Z,64.05
2019-04-25T22:20:41.000Z,62.69
2019-04-25T22:25:29.000Z,62.00
2019-04-25T22:30:17.000Z,63.45
2019-04-25T22:35:05.000Z,64.82
2019-04-25T22:39:53.000Z,64.52
2019-04-25T22:44:41.000Z,63.88
2019-04-25T22:49:29.000Z,64.49
2019-04-25T22:54:17.000Z,64.82
2019-04-25T22:59:05.000Z,65.04
2019-04-25T23:03:52.000Z,63.94
2019-04-25T23:08:40.000Z,65.11
2019-04-25T23:13:28.000Z,66.27
2019-04-25T23:18:16.000Z,66.88
2019-04-25T23:23:04.000Z,67.96
2019-04-25T23:27:52.000Z,67.81
2019-04-25T23:32:40.000Z,66.90
2019-04-25T23:37:28.000Z,67.01
2019-04-25T23:42:16.000Z,68.27
2019-04-25T23:47:03.000Z,67.39
2019-04-25T23:51:51.000Z,68.23
2019-04-25T23:56:41.000Z,68.29
